Time;durP1;ratioP1;P1;durP2;ratioP2;P2;SDS_P1;SDS_P2;PMS_P1;PMS_P2;Temp;Humidity;BMP_temperature;BMP_pressure;BME280_temperature;BME280_humidity;BME280_pressure;Samples;Min_cycle;Max_cycle;Signal;HPM_P1;HPM_P2
2021/12/29 00:01:08;;;;;;;21.93;9.73;;;;;;;-7.00;100.00;99942.81;1732858;81;21101;-80
2021/12/29 00:03:34;;;;;;;305.73;94.40;;;;;;;-6.96;100.00;99939.53;1741048;81;21057;-79
2021/12/29 00:06:02;;;;;;;25.23;12.50;;;;;;;-6.94;100.00;99943.43;1732530;82;21027;-78
2021/12/29 00:08:28;;;;;;;20.47;9.00;;;;;;;-6.87;100.00;99949.19;1732461;82;21078;-76
2021/12/29 00:10:57;;;;;;;19.57;8.80;;;;;;;-6.83;100.00;99947.15;1732398;82;22277;-76
2021/12/29 00:13:25;;;;;;;17.20;7.00;;;;;;;-6.84;100.00;99951.83;1732531;82;21550;-76
2021/12/29 00:15:57;;;;;;;42.73;14.33;;;;;;;-6.91;100.00;99948.21;1732559;82;21090;-77
2021/12/29 00:18:22;;;;;;;;;;;;;;;-6.96;100.00;99954.47;1734651;82;21018;-77
2021/12/29 00:20:49;;;;;;;17.13;7.40;;;;;;;-6.97;100.00;99953.14;1732545;82;20223;-76
2021/12/29 00:23:15;;;;;;;21.13;8.07;;;;;;;-7.03;100.00;99944.88;1732415;82;21746;-76
2021/12/29 00:25:42;;;;;;;14.83;7.47;;;;;;;-7.08;100.00;99945.15;1732493;82;21550;-76
2021/12/29 00:28:09;;;;;;;18.17;7.97;;;;;;;-7.12;100.00;99944.59;1732573;82;21899;-76
2021/12/29 00:30:36;;;;;;;25.83;9.87;;;;;;;-7.14;100.00;99938.55;1732286;82;21233;-75
2021/12/29 00:33:04;;;;;;;14.73;7.17;;;;;;;-7.15;100.00;99935.55;1728620;82;21054;-75
2021/12/29 00:35:41;;;;;;;30.57;11.90;;;;;;;-7.15;100.00;99934.27;1706463;82;21593;-75
2021/12/29 00:38:20;;;;;;;16.20;7.50;;;;;;;-7.20;100.00;99925.55;1732669;82;21145;-75
2021/12/29 00:41:05;;;;;;;17.33;7.83;;;;;;;-7.18;100.00;99931.59;1732620;82;21077;-76
2021/12/29 00:43:50;;;;;;;106.90;35.97;;;;;;;-7.21;100.00;99932.37;1732616;82;21094;-80
2021/12/29 00:46:38;;;;;;;76.10;25.03;;;;;;;-7.24;100.00;99931.42;1759686;81;21134;-81
2021/12/29 00:49:06;;;;;;;16.48;8.58;;;;;;;-7.23;100.00;99925.47;1763187;81;21045;-83
2021/12/29 00:51:32;;;;;;;29.90;12.33;;;;;;;-7.23;100.00;99925.47;1762401;81;21524;-81
2021/12/29 00:54:00;;;;;;;15.10;7.73;;;;;;;-7.25;100.00;99924.55;1760578;81;21050;-79
2021/12/29 00:56:26;;;;;;;15.60;8.13;;;;;;;-7.24;100.00;99918.63;1760773;81;21029;-77
2021/12/29 00:58:53;;;;;;;65.43;21.80;;;;;;;-7.23;100.00;99912.67;1760600;80;21046;-77
2021/12/29 01:01:19;;;;;;;20.03;9.03;;;;;;;-7.23;100.00;99911.40;1760607;81;21190;-79
2021/12/29 01:03:46;;;;;;;33.73;12.53;;;;;;;-7.22;100.00;99899.08;1761012;81;21757;-78
2021/12/29 01:06:13;;;;;;;37.83;13.40;;;;;;;-7.22;100.00;99896.10;1760713;81;21047;-80
2021/12/29 01:08:39;;;;;;;16.97;7.60;;;;;;;-7.21;100.00;99895.27;1738996;81;21034;-80
2021/12/29 01:11:06;;;;;;;30.07;10.17;;;;;;;-7.21;100.00;99891.42;1730318;82;21061;-83
2021/12/29 01:13:41;;;;;;;21.23;8.27;;;;;;;-7.20;100.00;99887.17;1730509;82;21643;-80
2021/12/29 01:18:37;;;;;;;24.33;9.87;;;;;;;-7.22;100.00;99883.30;1730643;82;21101;-70
2021/12/29 01:21:04;;;;;;;21.17;8.43;;;;;;;-7.22;100.00;99883.73;1730267;82;21090;-77
2021/12/29 01:23:31;;;;;;;38.53;13.23;;;;;;;-7.22;100.00;99875.62;1730262;82;21093;-77
2021/12/29 01:25:57;;;;;;;20.53;9.00;;;;;;;-7.19;100.00;99871.01;1730409;82;21026;-76
2021/12/29 01:28:24;;;;;;;19.73;8.97;;;;;;;-7.17;100.00;99871.93;1730735;82;21897;-76
2021/12/29 01:30:50;;;;;;;46.80;17.57;;;;;;;-7.19;100.00;99870.59;1730447;82;21037;-75
2021/12/29 01:33:18;;;;;;;17.47;8.23;;;;;;;-7.22;100.00;99867.09;1730493;82;21545;-76
2021/12/29 01:35:45;;;;;;;23.63;10.63;;;;;;;-7.22;100.00;99872.20;1730233;82;21058;-75
2021/12/29 01:38:12;;;;;;;22.83;8.00;;;;;;;-7.22;100.00;99874.34;1730464;82;21042;-76
2021/12/29 01:40:39;;;;;;;17.30;8.03;;;;;;;-7.21;100.00;99873.52;1730941;82;21874;-73
2021/12/29 01:43:08;;;;;;;19.60;8.57;;;;;;;-7.22;100.00;99877.33;1730446;82;21034;-74
2021/12/29 01:45:36;;;;;;;21.27;9.03;;;;;;;-7.22;100.00;99883.73;1730935;81;21054;-74
2021/12/29 01:48:04;;;;;;;20.10;8.63;;;;;;;-7.22;100.00;99881.16;1760651;81;21252;-74
2021/12/29 01:50:31;;;;;;;23.80;9.20;;;;;;;-7.21;100.00;99886.31;1760897;81;21085;-74
2021/12/29 01:53:07;;;;;;;18.63;8.27;;;;;;;-7.19;100.00;99890.20;1748679;81;21516;-74
2021/12/29 01:55:31;;;;;;;76.50;27.50;;;;;;;-7.15;100.00;99886.03;1707943;83;21588;-75
2021/12/29 01:57:59;;;;;;;17.67;8.43;;;;;;;-7.13;100.00;99884.00;1703102;84;21600;-76
2021/12/29 02:00:30;;;;;;;19.10;7.57;;;;;;;-7.09;100.00;99882.38;1703359;84;21058;-76
2021/12/29 02:02:56;;;;;;;18.70;8.40;;;;;;;-7.09;100.00;99880.69;1700045;84;21164;-76
2021/12/29 02:05:23;;;;;;;15.63;7.67;;;;;;;-7.11;100.00;99873.37;1696529;84;21541;-77
2021/12/29 02:07:51;;;;;;;16.20;7.70;;;;;;;-7.10;100.00;99871.28;1696426;84;21081;-76
2021/12/29 02:10:18;;;;;;;17.77;8.80;;;;;;;-7.08;100.00;99877.73;1696471;84;21108;-77
2021/12/29 02:12:45;;;;;;;15.40;8.37;;;;;;;-7.06;100.00;99868.00;1696734;84;21551;-75
2021/12/29 02:15:12;;;;;;;40.67;13.97;;;;;;;-7.06;100.00;99870.56;1696688;84;21052;-77
2021/12/29 02:17:40;;;;;;;23.97;9.43;;;;;;;-7.06;100.00;99857.77;1696760;84;21108;-75
2021/12/29 02:20:11;;;;;;;18.67;8.73;;;;;;;-7.07;100.00;99853.45;1696917;84;21034;-75
2021/12/29 02:22:48;;;;;;;26.57;8.80;;;;;;;-7.05;100.00;99844.55;1698543;84;21050;-76
2021/12/29 02:27:52;;;;;;;24.47;9.90;;;;;;;-7.02;100.00;99844.20;1700980;84;20986;-75
2021/12/29 02:30:21;;;;;;;20.33;8.90;;;;;;;-7.01;100.00;99844.67;1698482;84;21116;-75
2021/12/29 02:32:49;;;;;;;16.12;7.60;;;;;;;-7.01;100.00;99839.55;1697200;84;21085;-76
2021/12/29 02:35:17;;;;;;;37.83;12.27;;;;;;;-7.02;100.00;99839.08;1696866;84;21109;-77
2021/12/29 02:37:43;;;;;;;16.73;8.13;;;;;;;-7.02;100.00;99837.80;1697029;84;21026;-76
2021/12/29 02:40:11;;;;;;;21.87;11.07;;;;;;;-6.99;100.00;99836.63;1697281;84;21092;-78
2021/12/29 02:42:41;;;;;;;33.70;12.93;;;;;;;-6.98;100.00;99835.80;1697355;84;21160;-76
2021/12/29 02:45:13;;;;;;;;;;;;;;;-6.94;100.00;99838.46;1693936;84;21110;-77
2021/12/29 02:47:41;;;;;;;55.43;19.37;;;;;;;-6.92;100.00;99838.06;1675555;85;20251;-76
2021/12/29 02:50:09;;;;;;;112.57;37.07;;;;;;;-6.91;100.00;99833.42;1675804;85;21172;-77
2021/12/29 02:52:36;;;;;;;18.60;9.70;;;;;;;-6.89;100.00;99834.34;1679819;83;21541;-75
2021/12/29 02:55:03;;;;;;;26.87;9.83;;;;;;;-6.85;100.00;99827.20;1682902;85;21169;-76
2021/12/29 02:57:30;;;;;;;15.90;7.47;;;;;;;-6.84;100.00;99827.64;1683687;84;21109;-77
2021/12/29 02:59:56;;;;;;;15.70;8.13;;;;;;;-6.81;100.00;99827.72;1685921;85;21089;-77
2021/12/29 03:02:23;;;;;;;21.93;9.37;;;;;;;-6.84;100.00;99825.08;1685623;83;21059;-75
2021/12/29 03:04:50;;;;;;;14.17;7.30;;;;;;;-6.88;100.00;99815.57;1685834;85;21031;-77
2021/12/29 03:07:16;;;;;;;30.30;11.97;;;;;;;-6.86;100.00;99824.17;1685590;85;21131;-75
2021/12/29 03:09:43;;;;;;;16.40;7.13;;;;;;;-6.87;100.00;99820.75;1682525;85;21124;-76
2021/12/29 03:12:09;;;;;;;18.47;7.77;;;;;;;-6.87;100.00;99819.47;1682276;84;21061;-76
2021/12/29 03:14:36;;;;;;;19.47;7.97;;;;;;;-6.87;100.00;99826.29;1682878;84;21095;-75
2021/12/29 03:17:03;;;;;;;14.77;7.23;;;;;;;-6.86;100.00;99822.89;1682521;84;21050;-77
2021/12/29 03:19:30;;;;;;;133.23;38.50;;;;;;;-6.84;100.00;99811.00;1682577;83;21151;-75
2021/12/29 03:21:56;;;;;;;20.13;8.83;;;;;;;-6.83;100.00;99810.16;1682379;84;21100;-76
2021/12/29 03:24:23;;;;;;;19.17;8.33;;;;;;;-6.76;100.00;99813.38;1740030;82;21549;-76
2021/12/29 03:26:50;;;;;;;123.23;40.90;;;;;;;-6.73;100.00;99817.70;1740167;81;21041;-74
2021/12/29 03:29:16;;;;;;;16.60;8.40;;;;;;;-6.75;100.00;99815.09;1739864;81;21158;-76
2021/12/29 03:31:44;;;;;;;23.67;10.70;;;;;;;-6.73;100.00;99812.59;1753942;79;21162;-75
2021/12/29 03:34:10;;;;;;;87.50;27.70;;;;;;;-6.73;100.00;99810.88;1745897;79;20986;-74
2021/12/29 03:36:37;;;;;;;22.80;10.73;;;;;;;-6.71;100.00;99810.52;1740680;79;21585;-74
2021/12/29 03:39:05;;;;;;;27.37;12.47;;;;;;;-6.71;100.00;99813.08;1745006;82;21101;-75
2021/12/29 03:41:31;;;;;;;19.63;8.13;;;;;;;-6.72;100.00;99806.20;1744947;82;21042;-75
2021/12/29 03:43:57;;;;;;;17.50;7.83;;;;;;;-6.73;100.00;99807.05;1745465;82;22096;-75
2021/12/29 03:46:26;;;;;;;20.90;7.87;;;;;;;-6.75;100.00;99807.41;1732905;79;21593;-74
2021/12/29 03:48:53;;;;;;;16.77;6.93;;;;;;;-6.77;100.00;99802.66;1745074;82;21015;-74
2021/12/29 03:51:19;;;;;;;17.37;8.00;;;;;;;-6.78;100.00;99807.34;1744899;82;21103;-74
2021/12/29 03:53:46;;;;;;;13.40;6.93;;;;;;;-6.77;100.00;99805.22;1741295;82;21030;-75
2021/12/29 03:56:12;;;;;;;14.80;7.43;;;;;;;-6.78;100.00;99805.64;1744451;82;21486;-78
2021/12/29 03:58:41;;;;;;;19.83;9.20;;;;;;;-6.78;100.00;99803.08;1744612;82;21030;-76
2021/12/29 04:01:11;;;;;;;15.63;7.90;;;;;;;-6.77;100.00;99803.94;1744200;82;21058;-75
2021/12/29 04:03:42;;;;;;;14.87;7.30;;;;;;;-6.76;100.00;99807.83;1744481;82;21092;-75
2021/12/29 04:06:09;;;;;;;17.40;6.90;;;;;;;-6.73;100.00;99808.33;1744439;82;21390;-75
2021/12/29 04:08:35;;;;;;;13.40;7.10;;;;;;;-6.76;100.00;99803.13;1744509;82;21108;-75
2021/12/29 04:11:03;;;;;;;15.50;7.43;;;;;;;-6.75;100.00;99806.12;1744431;82;21117;-80
2021/12/29 04:13:30;;;;;;;13.17;7.43;;;;;;;-6.76;100.00;99808.25;1744567;82;20999;-79
2021/12/29 04:15:56;;;;;;;19.47;7.60;;;;;;;-6.77;100.00;99798.81;1744846;82;21057;-81
2021/12/29 04:18:27;;;;;;;14.87;7.10;;;;;;;-6.78;100.00;99800.94;1723421;82;21101;-80
2021/12/29 04:20:57;;;;;;;19.43;8.30;;;;;;;-6.80;100.00;99803.86;1744372;82;21039;-80
2021/12/29 04:23:34;;;;;;;22.15;7.45;;;;;;;-6.79;100.00;99797.91;1744628;82;23262;-79
2021/12/29 04:26:03;;;;;;;21.57;9.33;;;;;;;-6.79;100.00;99791.50;1744606;82;21109;-80
2021/12/29 04:28:31;;;;;;;;;;;;;;;-6.77;100.00;99793.69;1747327;82;21062;-81
2021/12/29 04:31:05;;;;;;;19.17;8.83;;;;;;;-6.76;100.00;99796.30;1744600;82;20182;-81
2021/12/29 04:33:31;;;;;;;17.00;7.07;;;;;;;-6.77;100.00;99789.43;1744554;82;21469;-73
2021/12/29 04:35:58;;;;;;;14.10;7.27;;;;;;;-6.73;100.00;99789.12;1744361;80;21080;-75
2021/12/29 04:38:25;;;;;;;20.37;8.23;;;;;;;-6.73;100.00;99798.08;1747982;80;21476;-74
2021/12/29 04:40:53;;;;;;;16.27;7.37;;;;;;;-6.74;100.00;99804.01;1748023;82;21069;-71
2021/12/29 04:43:20;;;;;;;20.87;8.27;;;;;;;-6.71;100.00;99800.27;1730361;82;21481;-72
2021/12/29 04:45:47;;;;;;;14.60;7.50;;;;;;;-6.70;100.00;99814.80;1722741;80;21164;-71
2021/12/29 04:48:14;;;;;;;16.93;8.10;;;;;;;-6.71;100.00;99802.83;1718681;82;21582;-65
2021/12/29 04:50:50;;;;;;;27.63;11.23;;;;;;;-6.67;100.00;99818.75;1663917;85;21133;-65
2021/12/29 04:53:12;;;;;;;19.25;8.53;;;;;;;-6.66;100.00;99811.92;1716463;81;21658;-65
2021/12/29 04:55:44;;;;;;;20.00;8.83;;;;;;;-6.65;100.00;99813.64;1716633;83;21580;-67
2021/12/29 04:58:07;;;;;;;22.87;9.73;;;;;;;-6.65;100.00;99814.50;1715670;83;21268;-66
2021/12/29 05:00:33;;;;;;;15.50;7.40;;;;;;;-6.61;100.00;99817.61;1720121;82;21046;-66
2021/12/29 05:03:01;;;;;;;24.40;10.80;;;;;;;-6.58;100.00;99818.99;1730627;82;21069;-65
2021/12/29 05:10:46;;;;;;;23.23;9.03;;;;;;;-6.52;100.00;99822.11;1718202;82;21163;-70
2021/12/29 05:13:14;;;;;;;20.93;8.87;;;;;;;-6.54;100.00;99820.78;1746890;82;21034;-72
2021/12/29 05:15:41;;;;;;;20.83;8.90;;;;;;;-6.54;100.00;99816.94;1745595;82;21037;-72
2021/12/29 05:18:08;;;;;;;19.10;8.93;;;;;;;-6.51;100.00;99814.01;1726557;82;21025;-73
2021/12/29 05:20:34;;;;;;;23.30;8.90;;;;;;;-6.49;100.00;99817.48;1717127;83;21056;-71
2021/12/29 05:23:02;;;;;;;18.73;8.87;;;;;;;-6.50;100.00;99816.63;1728462;82;21543;-72
2021/12/29 05:25:28;;;;;;;20.83;9.20;;;;;;;-6.52;100.00;99817.41;1677216;85;21004;-71
2021/12/29 05:27:56;;;;;;;19.90;9.00;;;;;;;-6.54;100.00;99813.09;1678109;84;21564;-70
2021/12/29 05:30:23;;;;;;;32.87;17.40;;;;;;;-6.59;100.00;99815.95;1691071;84;21081;-70
2021/12/29 05:32:50;;;;;;;20.10;9.87;;;;;;;-6.62;100.00;99815.89;1691169;84;21029;-70
2021/12/29 05:35:16;;;;;;;19.40;9.13;;;;;;;-6.65;100.00;99815.78;1683250;84;21195;-72
2021/12/29 05:37:44;;;;;;;20.47;9.27;;;;;;;-6.65;100.00;99815.78;1663049;84;21068;-71
2021/12/29 05:40:14;;;;;;;21.23;9.57;;;;;;;-6.68;100.00;99819.55;1674605;84;21169;-72
2021/12/29 05:42:44;;;;;;;19.95;8.68;;;;;;;-6.69;100.00;99819.11;1682055;83;21076;-72
2021/12/29 05:45:12;;;;;;;19.92;9.48;;;;;;;-6.70;100.00;99821.20;1666908;85;21146;-72
2021/12/29 05:47:40;;;;;;;44.43;14.43;;;;;;;-6.70;100.00;99812.23;1655314;86;21132;-72
2021/12/29 05:50:10;;;;;;;24.97;9.93;;;;;;;-6.68;100.00;99814.43;1682115;85;21126;-72
2021/12/29 05:52:37;;;;;;;25.33;11.17;;;;;;;-6.63;100.00;99819.67;1683469;83;21143;-71
2021/12/29 05:55:05;;;;;;;25.50;11.10;;;;;;;-6.61;100.00;99816.33;1680212;84;21115;-72
2021/12/29 05:57:33;;;;;;;23.30;9.70;;;;;;;-6.60;100.00;99812.95;1714337;83;21592;-71
2021/12/29 05:59:59;;;;;;;22.37;10.40;;;;;;;-6.58;100.00;99808.75;1717971;82;21520;-72
2021/12/29 06:02:25;;;;;;;27.93;11.07;;;;;;;-6.57;100.00;99812.17;1721743;80;21108;-72
2021/12/29 06:04:52;;;;;;;23.80;11.00;;;;;;;-6.56;100.00;99812.22;1734943;81;21069;-72
2021/12/29 06:07:18;;;;;;;24.73;11.17;;;;;;;-6.49;100.00;99814.92;1727962;82;21057;-73
2021/12/29 06:09:45;;;;;;;22.37;10.23;;;;;;;-6.50;100.00;99819.19;1739604;82;21097;-72
2021/12/29 06:12:12;;;;;;;18.13;10.40;;;;;;;-6.48;100.00;99819.23;1735744;82;21487;-74
2021/12/29 06:14:39;;;;;;;42.40;16.37;;;;;;;-6.46;100.00;99825.27;1672345;85;21478;-76
2021/12/29 06:17:06;;;;;;;24.03;10.50;;;;;;;-6.47;100.00;99818.39;1734090;82;20938;-76
2021/12/29 06:19:34;;;;;;;24.17;11.07;;;;;;;-6.46;100.00;99817.59;1742550;82;21073;-76
2021/12/29 06:22:00;;;;;;;29.13;12.57;;;;;;;-6.50;100.00;99813.20;1719476;80;21112;-77
2021/12/29 06:24:26;;;;;;;22.00;10.70;;;;;;;-6.51;100.00;99814.01;1724301;82;21087;-77
2021/12/29 06:26:53;;;;;;;25.77;11.13;;;;;;;-6.52;100.00;99811.01;1725329;82;21117;-75
2021/12/29 06:29:20;;;;;;;22.97;10.97;;;;;;;-6.54;100.00;99814.80;1735725;82;21659;-76
2021/12/29 06:31:48;;;;;;;26.47;12.43;;;;;;;-6.54;100.00;99810.95;1674215;85;21083;-76
2021/12/29 06:34:14;;;;;;;30.70;13.77;;;;;;;-6.49;100.00;99807.23;1688008;84;21070;-76
2021/12/29 06:36:41;;;;;;;29.43;12.53;;;;;;;-6.46;100.00;99804.77;1734883;82;21567;-76
2021/12/29 06:39:07;;;;;;;31.50;14.13;;;;;;;-6.39;100.00;99807.95;1741702;82;21052;-76
2021/12/29 06:41:34;;;;;;;26.20;11.53;;;;;;;-6.34;100.00;99808.50;1729636;82;21054;-76
2021/12/29 06:44:02;;;;;;;20.80;10.63;;;;;;;-6.30;100.00;99808.57;1722036;82;22208;-75
2021/12/29 06:46:29;;;;;;;95.57;33.10;;;;;;;-6.29;100.00;99815.03;1738268;81;21037;-75
2021/12/29 06:48:56;;;;;;;28.23;12.00;;;;;;;-6.29;100.00;99816.31;1714124;82;21123;-76
2021/12/29 06:51:22;;;;;;;27.17;11.80;;;;;;;-6.27;100.00;99821.06;1713608;83;21010;-75
2021/12/29 06:53:50;;;;;;;20.67;10.77;;;;;;;-6.26;100.00;99818.94;1716408;83;21046;-75
2021/12/29 06:56:16;;;;;;;25.43;11.37;;;;;;;-6.22;100.00;99824.60;1718378;83;21073;-76
2021/12/29 06:58:43;;;;;;;19.63;10.20;;;;;;;-6.22;100.00;99821.18;1722642;82;21069;-76
2021/12/29 07:01:09;;;;;;;24.37;11.00;;;;;;;-6.22;100.00;99828.88;1730518;82;21542;-75
2021/12/29 07:03:36;;;;;;;26.07;11.93;;;;;;;-6.27;100.00;99821.48;1732790;82;21049;-73
2021/12/29 07:06:02;;;;;;;22.23;10.23;;;;;;;-6.32;100.00;99823.93;1743128;82;21066;-72
2021/12/29 07:08:28;;;;;;;24.53;10.73;;;;;;;-6.38;100.00;99826.33;1731696;82;21101;-73
2021/12/29 07:10:56;;;;;;;35.07;13.07;;;;;;;-6.41;100.00;99827.53;1728743;82;21057;-74
2021/12/29 07:13:23;;;;;;;23.33;10.63;;;;;;;-6.41;100.00;99832.66;1719277;82;21156;-74
2021/12/29 07:15:50;;;;;;;28.60;12.60;;;;;;;-6.41;100.00;99831.38;1740084;82;21034;-74
2021/12/29 07:18:18;;;;;;;25.40;11.60;;;;;;;-6.39;100.00;99833.57;1744229;82;21041;-74
2021/12/29 07:20:44;;;;;;;24.57;10.97;;;;;;;-6.36;100.00;99831.94;1744350;82;21022;-72
2021/12/29 07:23:12;;;;;;;48.00;18.03;;;;;;;-6.35;100.00;99828.56;1744925;80;21058;-74
2021/12/29 07:25:38;;;;;;;22.97;11.10;;;;;;;-6.35;100.00;99829.84;1744429;82;21649;-72
2021/12/29 07:28:05;;;;;;;22.63;11.13;;;;;;;-6.29;100.00;99836.81;1744532;82;21033;-73
2021/12/29 07:30:31;;;;;;;30.13;13.07;;;;;;;-6.26;100.00;99839.86;1744182;82;21351;-73
2021/12/29 07:32:58;;;;;;;35.07;13.53;;;;;;;-6.25;100.00;99837.77;1743796;82;21108;-72
2021/12/29 07:35:25;;;;;;;24.97;12.90;;;;;;;-6.26;100.00;99836.88;1744210;82;21018;-73
2021/12/29 07:37:52;;;;;;;25.40;11.90;;;;;;;-6.26;100.00;99840.72;1738415;82;21156;-73
2021/12/29 07:40:18;;;;;;;29.47;14.30;;;;;;;-6.25;100.00;99833.51;1718730;81;21096;-72
2021/12/29 07:42:46;;;;;;;29.37;11.90;;;;;;;-6.25;100.00;99825.82;1732922;82;21045;-73
2021/12/29 07:45:13;;;;;;;29.43;14.33;;;;;;;-6.27;100.00;99820.20;1735746;80;21584;-74
2021/12/29 07:47:45;;;;;;;41.63;20.60;;;;;;;-6.27;100.00;99822.34;1735950;82;21018;-73
2021/12/29 07:50:09;;;;;;;90.33;38.40;;;;;;;-6.25;100.00;99825.82;1731141;82;21188;-73
2021/12/29 07:52:36;;;;;;;229.90;79.50;;;;;;;-6.21;100.00;99822.91;1721428;82;21059;-73
2021/12/29 07:55:04;;;;;;;301.60;103.43;;;;;;;-6.17;100.00;99826.86;1677241;84;21052;-74
2021/12/29 07:57:31;;;;;;;309.93;112.00;;;;;;;-6.18;100.00;99823.00;1689693;84;21638;-74
2021/12/29 07:59:57;;;;;;;242.63;86.57;;;;;;;-6.16;100.00;99825.19;1679973;84;21584;-73
2021/12/29 08:02:27;;;;;;;82.50;34.63;;;;;;;-6.13;100.00;99831.25;1696375;84;21795;-73
2021/12/29 08:04:55;;;;;;;85.37;31.63;;;;;;;-6.08;100.00;99830.50;1687312;84;21113;-73
2021/12/29 08:07:22;;;;;;;100.87;33.30;;;;;;;-6.04;100.00;99821.64;1687600;84;21077;-73
2021/12/29 08:09:48;;;;;;;75.47;32.87;;;;;;;-6.02;100.00;99818.70;1690113;84;21645;-74
2021/12/29 08:12:15;;;;;;;163.30;57.13;;;;;;;-6.02;100.00;99822.97;1679603;84;21129;-73
2021/12/29 08:14:42;;;;;;;270.77;94.70;;;;;;;-6.01;100.00;99824.69;1677929;84;21142;-75
2021/12/29 08:17:08;;;;;;;198.73;54.30;;;;;;;-5.99;100.00;99829.45;1700083;84;21733;-74
2021/12/29 08:19:36;;;;;;;159.40;47.53;;;;;;;-5.95;100.00;99826.13;1702658;84;21073;-74
2021/12/29 08:22:03;;;;;;;50.07;19.53;;;;;;;-5.94;100.00;99824.01;1702787;84;21565;-74
2021/12/29 08:24:32;;;;;;;75.23;23.37;;;;;;;-5.92;100.00;99823.60;1703135;84;21066;-73
2021/12/29 08:26:58;;;;;;;93.10;25.97;;;;;;;-5.89;100.00;99830.08;1702881;84;21533;-71
2021/12/29 08:29:30;;;;;;;67.10;21.10;;;;;;;-5.88;100.00;99830.55;1702863;84;21525;-70
2021/12/29 08:31:57;;;;;;;92.03;26.57;;;;;;;-5.87;100.00;99832.27;1700095;84;21529;-70
2021/12/29 08:34:24;;;;;;;57.97;21.87;;;;;;;-5.85;100.00;99830.61;1696387;84;21118;-70
2021/12/29 08:36:51;;;;;;;161.20;53.17;;;;;;;-5.81;100.00;99829.00;1681151;84;21035;-70
2021/12/29 08:39:18;;;;;;;86.57;24.87;;;;;;;-5.73;100.00;99829.64;1683451;84;21117;-71
2021/12/29 08:41:47;;;;;;;55.07;19.30;;;;;;;-5.69;100.00;99822.86;1668658;85;21045;-70
2021/12/29 08:44:13;;;;;;;65.13;21.17;;;;;;;-5.67;100.00;99824.20;1678925;84;21070;-70
2021/12/29 08:46:40;;;;;;;143.80;49.00;;;;;;;-5.69;100.00;99826.30;1657671;84;21077;-71
2021/12/29 08:49:07;;;;;;;28.03;13.37;;;;;;;-5.64;100.00;99826.82;1652162;86;21083;-70
2021/12/29 08:51:33;;;;;;;52.37;19.40;;;;;;;-5.58;100.00;99826.97;1680052;85;21780;-70
2021/12/29 08:54:01;;;;;;;106.07;40.27;;;;;;;-5.52;100.00;99823.24;1687712;83;21057;-70
2021/12/29 08:56:28;;;;;;;118.93;36.60;;;;;;;-5.46;100.00;99815.69;1714613;82;21512;-70
2021/12/29 08:58:56;;;;;;;72.67;24.20;;;;;;;-5.41;100.00;99808.09;1714784;83;21045;-71
2021/12/29 09:01:25;;;;;;;39.13;16.77;;;;;;;-5.41;99.89;99805.11;1716833;81;21076;-71
2021/12/29 09:03:52;;;;;;;53.60;19.77;;;;;;;-5.38;99.70;99804.30;1727476;82;21098;-72
2021/12/29 09:12:33;;;;;;;35.60;16.87;;;;;;;-5.18;99.69;99817.58;1719126;83;21058;-72
2021/12/29 09:15:01;;;;;;;58.37;22.70;;;;;;;-5.14;99.56;99816.81;1715586;83;22192;-72
2021/12/29 09:17:28;;;;;;;25.63;11.97;;;;;;;-5.14;98.63;99820.67;1703063;83;21088;-71
2021/12/29 09:19:55;;;;;;;53.87;18.23;;;;;;;-5.15;97.84;99818.95;1702263;84;21642;-71
2021/12/29 09:22:22;;;;;;;48.87;16.43;;;;;;;-5.16;97.82;99819.77;1702294;83;21001;-72
2021/12/29 09:24:50;;;;;;;27.57;12.73;;;;;;;-5.19;97.68;99824.84;1702577;84;21099;-72
2021/12/29 09:27:17;;;;;;;28.40;13.17;;;;;;;-5.16;98.77;99818.48;1698157;84;21779;-72
2021/12/29 09:29:44;;;;;;;35.83;15.23;;;;;;;-5.15;98.09;99824.08;1701971;83;21004;-72
2021/12/29 09:32:12;;;;;;;34.77;14.77;;;;;;;-5.12;98.17;99827.56;1702335;84;21508;-72
2021/12/29 09:34:38;;;;;;;87.43;32.23;;;;;;;-5.07;98.37;99830.23;1702821;84;21557;-72
2021/12/29 09:37:05;;;;;;;47.17;21.93;;;;;;;-5.07;96.77;99835.36;1702814;82;21578;-71
2021/12/29 09:39:34;;;;;;;32.00;15.43;;;;;;;-5.11;96.69;99828.03;1705425;82;21576;-72
2021/12/29 09:42:00;;;;;;;36.00;16.87;;;;;;;-5.13;97.04;99833.94;1728681;82;21048;-71
2021/12/29 09:44:27;;;;;;;320.93;127.00;;;;;;;-5.12;97.35;99824.14;1722295;81;21099;-71
2021/12/29 09:46:54;;;;;;;59.57;20.57;;;;;;;-5.08;97.44;99828.51;1724559;81;21112;-71
2021/12/29 09:49:22;;;;;;;65.93;23.03;;;;;;;-5.08;96.76;99828.51;1704900;82;21020;-73
2021/12/29 09:51:50;;;;;;;55.23;21.20;;;;;;;-5.06;97.36;99825.14;1707383;83;21265;-71
2021/12/29 09:54:17;;;;;;;36.37;16.20;;;;;;;-4.99;97.39;99831.27;1716398;82;21107;-71
2021/12/29 09:56:44;;;;;;;46.40;18.93;;;;;;;-4.98;96.84;99827.85;1710288;82;21028;-72
2021/12/29 09:59:10;;;;;;;183.17;58.10;;;;;;;-4.97;96.38;99830.89;1708254;83;21488;-72
2021/12/29 10:01:37;;;;;;;33.17;15.57;;;;;;;-5.00;96.88;99830.80;1716819;82;21578;-71
2021/12/29 10:04:05;;;;;;;31.33;14.63;;;;;;;-4.94;97.11;99834.80;1714359;82;21159;-72
2021/12/29 10:06:32;;;;;;;26.67;12.53;;;;;;;-4.96;96.70;99830.03;1717807;83;21365;-72
2021/12/29 10:09:11;;;;;;;180.40;40.40;;;;;;;-4.99;95.75;99829.98;1709784;83;21704;-71
2021/12/29 10:11:41;;;;;;;68.78;23.22;;;;;;;-5.01;95.83;99831.66;1692248;84;21754;-71
2021/12/29 10:14:11;;;;;;;123.85;34.10;;;;;;;-5.03;96.01;99823.47;1684977;83;21112;-71
2021/12/29 10:16:39;;;;;;;33.90;15.20;;;;;;;-5.04;96.33;99820.02;1668444;85;21145;-71
2021/12/29 10:19:15;;;;;;;52.80;18.23;;;;;;;-4.94;97.77;99821.09;1702591;83;22144;-72
2021/12/29 10:21:45;;;;;;;28.13;12.23;;;;;;;-4.87;97.46;99815.23;1668155;85;22158;-71
2021/12/29 10:24:12;;;;;;;34.30;16.42;;;;;;;-4.82;96.74;99815.33;1704704;83;21543;-73
2021/12/29 10:26:45;;;;;;;59.33;22.17;;;;;;;-4.81;96.96;99822.19;1668596;85;21074;-72
2021/12/29 10:29:18;;;;;;;43.23;15.03;;;;;;;-4.76;96.77;99819.28;1692510;83;21172;-72
2021/12/29 10:32:02;;;;;;;49.42;16.50;;;;;;;-4.76;95.92;99818.00;1656934;86;21627;-73
2021/12/29 10:34:29;;;;;;;26.97;12.03;;;;;;;-4.80;95.71;99818.80;1687772;84;21473;-73
2021/12/29 10:37:01;;;;;;;44.73;15.60;;;;;;;-4.84;95.46;99821.71;1657326;86;21065;-75
2021/12/29 10:39:32;;;;;;;60.65;19.20;;;;;;;-4.90;95.49;99814.77;1688048;84;21060;-71
2021/12/29 10:42:16;;;;;;;40.33;15.90;;;;;;;-4.94;95.74;99811.67;1668314;85;21172;-72
2021/12/29 10:44:47;;;;;;;39.17;15.57;;;;;;;-4.98;95.81;99810.30;1637557;87;21540;-71
2021/12/29 10:47:18;;;;;;;32.10;14.67;;;;;;;-4.99;95.62;99811.12;1656019;86;21082;-73
2021/12/29 10:49:55;;;;;;;29.75;13.68;;;;;;;-5.00;95.68;99815.81;1687914;84;21041;-71
2021/12/29 10:52:45;;;;;;;34.53;16.37;;;;;;;-4.99;96.15;99815.86;1639583;87;21587;-71
2021/12/29 10:55:22;;;;;;;64.80;26.33;;;;;;;-4.92;97.70;99811.30;1639675;87;21172;-72
2021/12/29 10:58:18;;;;;;;54.87;19.33;;;;;;;-4.81;97.74;99815.77;1633014;87;21109;-72
2021/12/29 11:01:02;;;;;;;64.20;21.47;;;;;;;-4.74;97.29;99808.63;1622133;85;21142;-71
2021/12/29 11:03:32;;;;;;;43.50;17.27;;;;;;;-4.73;96.21;99815.09;1672894;84;20994;-71
2021/12/29 11:06:01;;;;;;;41.28;16.02;;;;;;;-4.80;95.72;99819.66;1668388;84;21033;-71
2021/12/29 11:08:50;;;;;;;34.30;14.27;;;;;;;-4.86;95.74;99824.23;1684433;84;21120;-71
2021/12/29 11:11:19;;;;;;;38.60;16.37;;;;;;;-4.88;95.75;99829.79;1662487;85;22286;-71
2021/12/29 11:13:46;;;;;;;37.33;15.33;;;;;;;-4.86;96.03;99828.09;1672764;85;21067;-73
2021/12/29 11:16:14;;;;;;;31.65;15.50;;;;;;;-4.87;95.83;99827.66;1673387;85;21026;-71
2021/12/29 11:18:51;;;;;;;39.20;17.47;;;;;;;-4.83;96.05;99826.42;1628043;85;21065;-71
2021/12/29 11:21:34;;;;;;;283.17;106.93;;;;;;;-4.83;95.76;99817.44;1672886;85;22196;-70
2021/12/29 11:24:25;;;;;;;243.73;89.67;;;;;;;-4.85;95.36;99823.42;1674386;85;21038;-71
2021/12/29 11:26:52;;;;;;;93.43;38.17;;;;;;;-4.83;97.22;99824.75;1676785;85;21041;-71
2021/12/29 11:29:21;;;;;;;67.43;23.70;;;;;;;-4.75;97.05;99832.59;1676835;85;21033;-71
2021/12/29 11:32:00;;;;;;;;;;;;;;;-4.71;96.18;99831.83;1635265;88;21075;-73
2021/12/29 11:34:28;;;;;;;58.65;24.72;;;;;;;-4.68;96.71;99835.73;1648239;86;21827;-72
2021/12/29 11:37:10;;;;;;;29.63;14.50;;;;;;;-4.61;96.93;99823.88;1657025;84;21118;-72